sensor_id;sensor_type;location;lat;lon;timestamp;pressure;altitude;pressure_sealevel;temperature;humidity
67038;BME280;53940;53.204;6.590;2022-08-19T00:01:44;101348.34;;;22.44;62.88
67038;BME280;53940;53.204;6.590;2022-08-19T00:04:45;101352.88;;;22.44;62.84
67038;BME280;53940;53.204;6.590;2022-08-19T00:07:48;101337.75;;;22.43;62.81
67038;BME280;53940;53.204;6.590;2022-08-19T00:10:49;101340.44;;;22.43;62.86
67038;BME280;53940;53.204;6.590;2022-08-19T00:13:49;101343.13;;;22.43;62.99
67038;BME280;53940;53.204;6.590;2022-08-19T00:16:50;101336.91;;;22.42;62.68
67038;BME280;53940;53.204;6.590;2022-08-19T00:19:54;101343.25;;;22.41;62.71
67038;BME280;53940;53.204;6.590;2022-08-19T00:22:54;101352.31;;;22.40;62.81
67038;BME280;53940;53.204;6.590;2022-08-19T00:25:54;101340.72;;;22.40;62.68
67038;BME280;53940;53.204;6.590;2022-08-19T00:28:55;101346.94;;;22.40;62.87
67038;BME280;53940;53.204;6.590;2022-08-19T00:31:56;101339.00;;;22.39;62.93
67038;BME280;53940;53.204;6.590;2022-08-19T00:34:58;101345.25;;;22.39;62.75
67038;BME280;53940;53.204;6.590;2022-08-19T00:38:01;101338.16;;;22.38;62.74
67038;BME280;53940;53.204;6.590;2022-08-19T00:41:04;101346.22;;;22.38;62.88
67038;BME280;53940;53.204;6.590;2022-08-19T00:44:09;101341.84;;;22.37;62.69
67038;BME280;53940;53.204;6.590;2022-08-19T00:47:09;101331.94;;;22.38;62.75
67038;BME280;53940;53.204;6.590;2022-08-19T00:50:14;101321.34;;;22.36;62.92
67038;BME280;53940;53.204;6.590;2022-08-19T00:53:22;101331.25;;;22.35;62.80
67038;BME280;53940;53.204;6.590;2022-08-19T00:56:23;101329.41;;;22.36;62.88
67038;BME280;53940;53.204;6.590;2022-08-19T00:59:24;101325.03;;;22.35;62.69
67038;BME280;53940;53.204;6.590;2022-08-19T01:02:26;101330.53;;;22.33;62.63
67038;BME280;53940;53.204;6.590;2022-08-19T01:05:28;101326.84;;;22.34;62.68
67038;BME280;53940;53.204;6.590;2022-08-19T01:08:29;101314.41;;;22.33;62.53
67038;BME280;53940;53.204;6.590;2022-08-19T01:11:31;101313.59;;;22.33;62.75
67038;BME280;53940;53.204;6.590;2022-08-19T01:14:35;101308.22;;;22.33;62.62
67038;BME280;53940;53.204;6.590;2022-08-19T01:17:38;101308.22;;;22.33;62.72
67038;BME280;53940;53.204;6.590;2022-08-19T01:20:40;101309.16;;;22.32;62.70
67038;BME280;53940;53.204;6.590;2022-08-19T01:23:43;101312.84;;;22.31;62.60
67038;BME280;53940;53.204;6.590;2022-08-19T01:26:44;101315.53;;;22.31;62.78
67038;BME280;53940;53.204;6.590;2022-08-19T01:29:45;101318.22;;;22.31;62.66
67038;BME280;53940;53.204;6.590;2022-08-19T01:32:46;101303.09;;;22.30;62.63
67038;BME280;53940;53.204;6.590;2022-08-19T01:35:47;101314.84;;;22.29;62.76
67038;BME280;53940;53.204;6.590;2022-08-19T01:38:50;101319.22;;;22.30;62.65
67038;BME280;53940;53.204;6.590;2022-08-19T01:41:50;101312.16;;;22.29;62.80
67038;BME280;53940;53.204;6.590;2022-08-19T01:44:54;101312.16;;;22.29;62.61
67038;BME280;53940;53.204;6.590;2022-08-19T01:47:55;101313.97;;;22.28;62.69
67038;BME280;53940;53.204;6.590;2022-08-19T01:50:56;101307.78;;;22.28;62.61
67038;BME280;53940;53.204;6.590;2022-08-19T01:53:56;101303.41;;;22.27;62.69
67038;BME280;53940;53.204;6.590;2022-08-19T01:57:03;101314.13;;;22.27;62.68
67038;BME280;53940;53.204;6.590;2022-08-19T02:00:08;101308.78;;;22.27;62.49
67038;BME280;53940;53.204;6.590;2022-08-19T02:03:09;101303.53;;;22.25;62.49
67038;BME280;53940;53.204;6.590;2022-08-19T02:06:11;101308.03;;;22.25;62.47
67038;BME280;53940;53.204;6.590;2022-08-19T02:09:11;101315.97;;;22.26;62.56
67038;BME280;53940;53.204;6.590;2022-08-19T02:12:11;101326.81;;;22.25;62.64
67038;BME280;53940;53.204;6.590;2022-08-19T02:15:12;101314.28;;;22.25;62.41
67038;BME280;53940;53.204;6.590;2022-08-19T02:18:13;101309.03;;;22.24;62.57
67038;BME280;53940;53.204;6.590;2022-08-19T02:21:18;101319.78;;;22.24;62.30
67038;BME280;53940;53.204;6.590;2022-08-19T02:24:19;101327.81;;;22.24;62.40
67038;BME280;53940;53.204;6.590;2022-08-19T02:27:20;101325.13;;;22.24;62.45
67038;BME280;53940;53.204;6.590;2022-08-19T02:30:21;101327.00;;;22.23;62.42
67038;BME280;53940;53.204;6.590;2022-08-19T02:33:21;101318.06;;;22.23;62.57
67038;BME280;53940;53.204;6.590;2022-08-19T02:36:21;101318.06;;;22.23;62.38
67038;BME280;53940;53.204;6.590;2022-08-19T02:39:22;101325.28;;;22.22;62.42
67038;BME280;53940;53.204;6.590;2022-08-19T02:42:22;101319.91;;;22.22;62.46
67038;BME280;53940;53.204;6.590;2022-08-19T02:45:23;101324.44;;;22.21;62.36
67038;BME280;53940;53.204;6.590;2022-08-19T02:48:24;101325.44;;;22.20;62.46
67038;BME280;53940;53.204;6.590;2022-08-19T02:51:31;101324.56;;;22.20;62.45
67038;BME280;53940;53.204;6.590;2022-08-19T02:54:32;101326.38;;;22.19;62.30
67038;BME280;53940;53.204;6.590;2022-08-19T02:57:32;101323.69;;;22.19;62.30
67038;BME280;53940;53.204;6.590;2022-08-19T03:00:32;101314.81;;;22.19;62.24
67038;BME280;53940;53.204;6.590;2022-08-19T03:03:33;101323.69;;;22.19;62.26
67038;BME280;53940;53.204;6.590;2022-08-19T03:06:39;101306.78;;;22.19;62.44
67038;BME280;53940;53.204;6.590;2022-08-19T03:09:40;101320.19;;;22.19;62.37
67038;BME280;53940;53.204;6.590;2022-08-19T03:12:42;101314.94;;;22.17;62.39
67038;BME280;53940;53.204;6.590;2022-08-19T03:15:45;101318.50;;;22.18;62.29
67038;BME280;53940;53.204;6.590;2022-08-19T03:18:45;101322.00;;;22.18;62.41
67038;BME280;53940;53.204;6.590;2022-08-19T03:21:46;101312.25;;;22.17;62.21
67038;BME280;53940;53.204;6.590;2022-08-19T03:24:46;101297.16;;;22.16;62.28
67038;BME280;53940;53.204;6.590;2022-08-19T03:27:47;101307.03;;;22.16;62.27
67038;BME280;53940;53.204;6.590;2022-08-19T03:30:57;101296.28;;;22.16;62.27
67038;BME280;53940;53.204;6.590;2022-08-19T03:33:58;101301.66;;;22.16;62.21
67038;BME280;53940;53.204;6.590;2022-08-19T03:37:02;101297.28;;;22.15;62.12
67038;BME280;53940;53.204;6.590;2022-08-19T03:40:04;101295.47;;;22.15;62.14
67038;BME280;53940;53.204;6.590;2022-08-19T03:43:05;101305.34;;;22.15;62.23
67038;BME280;53940;53.204;6.590;2022-08-19T03:46:09;101307.19;;;22.14;62.13
67038;BME280;53940;53.204;6.590;2022-08-19T03:49:09;101316.22;;;22.13;62.35
67038;BME280;53940;53.204;6.590;2022-08-19T03:52:10;101316.22;;;22.13;62.47
67038;BME280;53940;53.204;6.590;2022-08-19T03:55:10;101321.56;;;22.13;62.28
67038;BME280;53940;53.204;6.590;2022-08-19T03:58:11;101316.22;;;22.13;62.44
67038;BME280;53940;53.204;6.590;2022-08-19T04:01:14;101311.81;;;22.12;62.38
67038;BME280;53940;53.204;6.590;2022-08-19T04:04:14;101318.06;;;22.13;62.47
67038;BME280;53940;53.204;6.590;2022-08-19T04:07:15;101311.81;;;22.12;62.23
67038;BME280;53940;53.204;6.590;2022-08-19T04:10:16;101312.81;;;22.11;62.23
67038;BME280;53940;53.204;6.590;2022-08-19T04:13:17;101305.63;;;22.12;62.15
67038;BME280;53940;53.204;6.590;2022-08-19T04:16:19;101300.25;;;22.12;62.23
67038;BME280;53940;53.204;6.590;2022-08-19T04:19:20;101305.63;;;22.12;61.98
67038;BME280;53940;53.204;6.590;2022-08-19T04:22:20;101299.41;;;22.11;62.24
67038;BME280;53940;53.204;6.590;2022-08-19T04:25:20;101294.03;;;22.11;62.12
67038;BME280;53940;53.204;6.590;2022-08-19T04:28:21;101304.78;;;22.11;62.22
67038;BME280;53940;53.204;6.590;2022-08-19T04:31:24;101309.31;;;22.11;62.13
67038;BME280;53940;53.204;6.590;2022-08-19T04:34:28;101301.38;;;22.09;62.27
67038;BME280;53940;53.204;6.590;2022-08-19T04:37:30;101311.13;;;22.10;62.32
67038;BME280;53940;53.204;6.590;2022-08-19T04:40:34;101306.75;;;22.09;62.18
67038;BME280;53940;53.204;6.590;2022-08-19T04:43:52;101316.63;;;22.08;61.98
67038;BME280;53940;53.204;6.590;2022-08-19T04:46:53;101317.50;;;22.09;62.21
67038;BME280;53940;53.204;6.590;2022-08-19T04:49:53;101310.44;;;22.08;61.99
67038;BME280;53940;53.204;6.590;2022-08-19T04:52:53;101296.16;;;22.07;62.04
67038;BME280;53940;53.204;6.590;2022-08-19T04:55:56;101302.38;;;22.08;62.24
67038;BME280;53940;53.204;6.590;2022-08-19T04:58:57;101299.69;;;22.08;62.05
67038;BME280;53940;53.204;6.590;2022-08-19T05:01:57;101283.59;;;22.08;62.01
67038;BME280;53940;53.204;6.590;2022-08-19T05:04:58;101283.59;;;22.08;62.27
67038;BME280;53940;53.204;6.590;2022-08-19T05:08:00;101288.97;;;22.08;61.90
67038;BME280;53940;53.204;6.590;2022-08-19T05:11:00;101292.59;;;22.07;62.01
67038;BME280;53940;53.204;6.590;2022-08-19T05:14:01;101293.47;;;22.07;62.01
67038;BME280;53940;53.204;6.590;2022-08-19T05:17:01;101288.09;;;22.07;61.95
67038;BME280;53940;53.204;6.590;2022-08-19T05:20:04;101292.59;;;22.07;62.08
67038;BME280;53940;53.204;6.590;2022-08-19T05:23:23;101300.66;;;22.07;62.11
67038;BME280;53940;53.204;6.590;2022-08-19T05:26:25;101302.38;;;22.08;61.90
67038;BME280;53940;53.204;6.590;2022-08-19T05:29:30;101305.06;;;22.08;62.19
67038;BME280;53940;53.204;6.590;2022-08-19T05:32:31;101301.38;;;22.09;62.33
67038;BME280;53940;53.204;6.590;2022-08-19T05:35:31;101303.06;;;22.10;62.13
67038;BME280;53940;53.204;6.590;2022-08-19T05:38:32;101290.34;;;22.12;62.18
67038;BME280;53940;53.204;6.590;2022-08-19T05:41:32;101284.72;;;22.15;62.08
67038;BME280;53940;53.204;6.590;2022-08-19T05:44:37;101276.53;;;22.17;62.12
67038;BME280;53940;53.204;6.590;2022-08-19T05:47:38;101280.75;;;22.19;62.18
67038;BME280;53940;53.204;6.590;2022-08-19T05:50:40;101269.75;;;22.23;62.16
67038;BME280;53940;53.204;6.590;2022-08-19T05:53:42;101271.19;;;22.27;62.18
67038;BME280;53940;53.204;6.590;2022-08-19T05:56:43;101277.94;;;22.31;62.20
67038;BME280;53940;53.204;6.590;2022-08-19T05:59:44;101277.69;;;22.34;62.00
67038;BME280;53940;53.204;6.590;2022-08-19T06:02:48;101281.75;;;22.38;62.23
67038;BME280;53940;53.204;6.590;2022-08-19T06:05:48;101283.19;;;22.42;62.15
67038;BME280;53940;53.204;6.590;2022-08-19T06:08:48;101278.25;;;22.47;62.14
67038;BME280;53940;53.204;6.590;2022-08-19T06:11:54;101279.69;;;22.52;61.97
67038;BME280;53940;53.204;6.590;2022-08-19T06:14:54;101268.41;;;22.58;62.13
67038;BME280;53940;53.204;6.590;2022-08-19T06:17:54;101262.72;;;22.61;62.09
67038;BME280;53940;53.204;6.590;2022-08-19T06:20:55;101264.97;;;22.66;62.02
67038;BME280;53940;53.204;6.590;2022-08-19T06:23:56;101268.94;;;22.71;62.10
67038;BME280;53940;53.204;6.590;2022-08-19T06:26:58;101265.00;;;22.75;62.01
67038;BME280;53940;53.204;6.590;2022-08-19T06:30:05;101264.41;;;22.82;61.93
67038;BME280;53940;53.204;6.590;2022-08-19T06:33:09;101266.66;;;22.86;61.83
67038;BME280;53940;53.204;6.590;2022-08-19T06:36:17;101268.63;;;22.94;61.80
67038;BME280;53940;53.204;6.590;2022-08-19T06:39:25;101264.66;;;22.98;61.73
67038;BME280;53940;53.204;6.590;2022-08-19T06:42:25;101273.13;;;23.04;61.72
67038;BME280;53940;53.204;6.590;2022-08-19T06:45:25;101268.19;;;23.09;61.46
67038;BME280;53940;53.204;6.590;2022-08-19T06:48:26;101268.59;;;23.14;61.59
67038;BME280;53940;53.204;6.590;2022-08-19T06:51:26;101259.22;;;23.18;61.54
67038;BME280;53940;53.204;6.590;2022-08-19T06:54:28;101269.38;;;23.24;61.36
67038;BME280;53940;53.204;6.590;2022-08-19T06:57:29;101266.16;;;23.31;61.30
67038;BME280;53940;53.204;6.590;2022-08-19T07:00:31;101277.31;;;23.36;61.38
67038;BME280;53940;53.204;6.590;2022-08-19T07:03:33;101275.03;;;23.41;61.35
67038;BME280;53940;53.204;6.590;2022-08-19T07:06:36;101272.75;;;23.46;61.36
67038;BME280;53940;53.204;6.590;2022-08-19T07:09:38;101269.59;;;23.51;61.17
67038;BME280;53940;53.204;6.590;2022-08-19T07:12:39;101268.19;;;23.57;61.16
67038;BME280;53940;53.204;6.590;2022-08-19T07:15:41;101281.03;;;23.63;61.05
67038;BME280;53940;53.204;6.590;2022-08-19T07:18:41;101282.28;;;23.68;60.84
67038;BME280;53940;53.204;6.590;2022-08-19T07:21:42;101280.00;;;23.74;60.97
67038;BME280;53940;53.204;6.590;2022-08-19T07:24:43;101270.63;;;23.78;60.82
67038;BME280;53940;53.204;6.590;2022-08-19T07:27:43;101279.06;;;23.83;60.74
67038;BME280;53940;53.204;6.590;2022-08-19T07:30:44;101274.09;;;23.88;60.54
67038;BME280;53940;53.204;6.590;2022-08-19T07:33:46;101275.34;;;23.94;60.54
67038;BME280;53940;53.204;6.590;2022-08-19T07:36:47;101279.41;;;23.98;60.27
67038;BME280;53940;53.204;6.590;2022-08-19T07:39:47;101270.06;;;24.02;60.44
67038;BME280;53940;53.204;6.590;2022-08-19T07:42:48;101268.75;;;24.06;60.21
67038;BME280;53940;53.204;6.590;2022-08-19T07:45:48;101279.25;;;24.09;60.00
67038;BME280;53940;53.204;6.590;2022-08-19T07:48:49;101276.09;;;24.14;59.99
67038;BME280;53940;53.204;6.590;2022-08-19T07:51:54;101282.03;;;24.18;59.89
67038;BME280;53940;53.204;6.590;2022-08-19T07:54:55;101274.31;;;24.23;59.56
67038;BME280;53940;53.204;6.590;2022-08-19T07:57:56;101276.59;;;24.28;59.50
67038;BME280;53940;53.204;6.590;2022-08-19T08:00:57;101282.50;;;24.31;59.78
67038;BME280;53940;53.204;6.590;2022-08-19T08:03:58;101283.88;;;24.35;59.35
67038;BME280;53940;53.204;6.590;2022-08-19T08:07:17;101283.56;;;24.39;59.37
67038;BME280;53940;53.204;6.590;2022-08-19T08:10:36;101285.81;;;24.43;59.19
67038;BME280;53940;53.204;6.590;2022-08-19T08:13:36;101290.03;;;24.46;59.31
67038;BME280;53940;53.204;6.590;2022-08-19T08:16:37;101291.44;;;24.50;58.92
67038;BME280;53940;53.204;6.590;2022-08-19T08:19:38;101297.50;;;24.52;58.89
67038;BME280;53940;53.204;6.590;2022-08-19T08:22:45;101299.91;;;24.55;58.92
67038;BME280;53940;53.204;6.590;2022-08-19T08:26:04;101301.25;;;24.59;58.92
67038;BME280;53940;53.204;6.590;2022-08-19T08:29:05;101305.50;;;24.62;58.63
67038;BME280;53940;53.204;6.590;2022-08-19T08:32:07;101302.66;;;24.63;58.78
67038;BME280;53940;53.204;6.590;2022-08-19T08:35:11;101302.34;;;24.67;58.75
67038;BME280;53940;53.204;6.590;2022-08-19T08:38:12;101302.03;;;24.70;58.59
67038;BME280;53940;53.204;6.590;2022-08-19T08:44:46;101311.50;;;24.74;58.33
67038;BME280;53940;53.204;6.590;2022-08-19T08:47:52;101312.19;;;24.76;58.05
67038;BME280;53940;53.204;6.590;2022-08-19T08:50:56;101320.97;;;24.78;58.34
67038;BME280;53940;53.204;6.590;2022-08-19T08:53:59;101318.13;;;24.80;57.88
67038;BME280;53940;53.204;6.590;2022-08-19T08:57:00;101325.09;;;24.82;57.94
67038;BME280;53940;53.204;6.590;2022-08-19T09:00:15;101322.38;;;24.82;58.08
67038;BME280;53940;53.204;6.590;2022-08-19T09:03:22;101324.06;;;24.83;57.70
67038;BME280;53940;53.204;6.590;2022-08-19T09:06:38;101320.38;;;24.84;57.80
67038;BME280;53940;53.204;6.590;2022-08-19T09:09:43;101319.38;;;24.85;57.68
67038;BME280;53940;53.204;6.590;2022-08-19T09:19:05;101318.38;;;24.86;57.45
67038;BME280;53940;53.204;6.590;2022-08-19T09:22:08;101313.81;;;24.87;57.77
67038;BME280;53940;53.204;6.590;2022-08-19T09:25:11;101319.22;;;24.87;57.26
67038;BME280;53940;53.204;6.590;2022-08-19T09:28:11;101320.91;;;24.88;57.70
67038;BME280;53940;53.204;6.590;2022-08-19T09:31:14;101307.59;;;24.86;57.35
67038;BME280;53940;53.204;6.590;2022-08-19T09:34:14;101315.69;;;24.86;57.59
67038;BME280;53940;53.204;6.590;2022-08-19T09:37:15;101316.66;;;24.85;57.27
67038;BME280;53940;53.204;6.590;2022-08-19T09:40:16;101309.59;;;24.84;57.35
67038;BME280;53940;53.204;6.590;2022-08-19T09:43:17;101312.28;;;24.84;57.57
67038;BME280;53940;53.204;6.590;2022-08-19T09:46:18;101314.16;;;24.84;57.55
67038;BME280;53940;53.204;6.590;2022-08-19T09:49:21;101311.59;;;24.82;57.22
67038;BME280;53940;53.204;6.590;2022-08-19T09:52:24;101314.31;;;24.82;57.50
67038;BME280;53940;53.204;6.590;2022-08-19T09:55:25;101308.19;;;24.80;57.42
67038;BME280;53940;53.204;6.590;2022-08-19T09:58:25;101311.03;;;24.79;57.51
67038;BME280;53940;53.204;6.590;2022-08-19T10:01:30;101308.50;;;24.77;57.33
67038;BME280;53940;53.204;6.590;2022-08-19T10:04:31;101305.13;;;24.75;57.38
67038;BME280;53940;53.204;6.590;2022-08-19T10:07:50;101309.78;;;24.73;57.28
67038;BME280;53940;53.204;6.590;2022-08-19T10:10:51;101309.13;;;24.71;57.18
67038;BME280;53940;53.204;6.590;2022-08-19T10:13:52;101315.50;;;24.70;57.48
67038;BME280;53940;53.204;6.590;2022-08-19T10:16:52;101313.13;;;24.67;57.50
67038;BME280;53940;53.204;6.590;2022-08-19T10:19:53;101304.34;;;24.65;57.53
67038;BME280;53940;53.204;6.590;2022-08-19T10:22:53;101300.97;;;24.62;57.46
67038;BME280;53940;53.204;6.590;2022-08-19T10:25:54;101302.94;;;24.60;57.47
67038;BME280;53940;53.204;6.590;2022-08-19T10:28:56;101309.50;;;24.58;57.60
67038;BME280;53940;53.204;6.590;2022-08-19T10:31:58;101305.28;;;24.55;57.36
67038;BME280;53940;53.204;6.590;2022-08-19T10:35:00;101306.59;;;24.51;57.42
67038;BME280;53940;53.204;6.590;2022-08-19T10:38:01;101293.41;;;24.48;57.50
67038;BME280;53940;53.204;6.590;2022-08-19T10:41:12;101309.91;;;24.45;57.70
67038;BME280;53940;53.204;6.590;2022-08-19T10:44:13;101303.13;;;24.41;57.50
67038;BME280;53940;53.204;6.590;2022-08-19T10:47:14;101304.44;;;24.36;57.66
67038;BME280;53940;53.204;6.590;2022-08-19T10:50:15;101299.34;;;24.33;57.64
67038;BME280;53940;53.204;6.590;2022-08-19T10:53:34;101294.56;;;24.27;57.79
67038;BME280;53940;53.204;6.590;2022-08-19T10:56:34;101292.34;;;24.22;57.85
67038;BME280;53940;53.204;6.590;2022-08-19T10:59:53;101286.41;;;24.19;57.91
67038;BME280;53940;53.204;6.590;2022-08-19T11:02:53;101293.09;;;24.15;57.87
67038;BME280;53940;53.204;6.590;2022-08-19T11:06:01;101286.31;;;24.11;58.18
67038;BME280;53940;53.204;6.590;2022-08-19T11:09:02;101292.00;;;24.07;58.26
67038;BME280;53940;53.204;6.590;2022-08-19T11:12:03;101292.28;;;24.04;58.09
67038;BME280;53940;53.204;6.590;2022-08-19T11:15:03;101296.13;;;24.02;58.07
67038;BME280;53940;53.204;6.590;2022-08-19T11:18:04;101309.03;;;23.98;58.24
67038;BME280;53940;53.204;6.590;2022-08-19T11:21:14;101292.34;;;23.94;58.29
67038;BME280;53940;53.204;6.590;2022-08-19T11:24:19;101298.88;;;23.92;58.36
67038;BME280;53940;53.204;6.590;2022-08-19T11:27:20;101295.47;;;23.90;58.29
67038;BME280;53940;53.204;6.590;2022-08-19T11:30:21;101290.38;;;23.87;58.71
67038;BME280;53940;53.204;6.590;2022-08-19T11:33:21;101288.00;;;23.83;58.61
67038;BME280;53940;53.204;6.590;2022-08-19T11:36:21;101289.84;;;23.83;58.57
67038;BME280;53940;53.204;6.590;2022-08-19T11:39:22;101285.59;;;23.80;58.88
67038;BME280;53940;53.204;6.590;2022-08-19T11:42:22;101286.47;;;23.81;59.10
67038;BME280;53940;53.204;6.590;2022-08-19T11:45:41;101288.47;;;23.79;59.11
67038;BME280;53940;53.204;6.590;2022-08-19T11:48:42;101285.91;;;23.77;59.25
67038;BME280;53940;53.204;6.590;2022-08-19T11:51:43;101297.53;;;23.78;59.34
67038;BME280;53940;53.204;6.590;2022-08-19T11:54:43;101294.13;;;23.76;59.47
67038;BME280;53940;53.204;6.590;2022-08-19T11:57:43;101292.44;;;23.75;59.66
67038;BME280;53940;53.204;6.590;2022-08-19T12:00:44;101296.13;;;23.74;59.86
67038;BME280;53940;53.204;6.590;2022-08-19T12:03:46;101292.59;;;23.73;59.99
67038;BME280;53940;53.204;6.590;2022-08-19T12:06:47;101286.53;;;23.71;60.29
67038;BME280;53940;53.204;6.590;2022-08-19T12:09:47;101283.13;;;23.69;60.14
67038;BME280;53940;53.204;6.590;2022-08-19T12:12:48;101286.81;;;23.68;60.22
67038;BME280;53940;53.204;6.590;2022-08-19T12:15:48;101284.97;;;23.68;60.22
67038;BME280;53940;53.204;6.590;2022-08-19T12:18:49;101290.50;;;23.67;60.24
67038;BME280;53940;53.204;6.590;2022-08-19T12:21:51;101292.50;;;23.65;60.43
67038;BME280;53940;53.204;6.590;2022-08-19T12:24:53;101283.72;;;23.63;60.51
67038;BME280;53940;53.204;6.590;2022-08-19T12:27:54;101285.72;;;23.61;60.51
67038;BME280;53940;53.204;6.590;2022-08-19T12:30:55;101289.41;;;23.60;60.51
67038;BME280;53940;53.204;6.590;2022-08-19T12:33:56;101287.72;;;23.59;60.64
67038;BME280;53940;53.204;6.590;2022-08-19T12:36:58;101291.53;;;23.56;60.55
67038;BME280;53940;53.204;6.590;2022-08-19T12:39:58;101289.00;;;23.54;60.75
67038;BME280;53940;53.204;6.590;2022-08-19T12:43:02;101282.91;;;23.52;60.83
67038;BME280;53940;53.204;6.590;2022-08-19T12:46:03;101285.75;;;23.51;60.80
67038;BME280;53940;53.204;6.590;2022-08-19T12:49:04;101284.06;;;23.50;60.81
67038;BME280;53940;53.204;6.590;2022-08-19T12:52:05;101284.19;;;23.48;60.80
67038;BME280;53940;53.204;6.590;2022-08-19T12:55:08;101278.13;;;23.46;60.74
67038;BME280;53940;53.204;6.590;2022-08-19T12:58:09;101281.81;;;23.45;60.82
67038;BME280;53940;53.204;6.590;2022-08-19T13:01:14;101278.41;;;23.43;60.77
67038;BME280;53940;53.204;6.590;2022-08-19T13:04:16;101274.03;;;23.42;60.91
67038;BME280;53940;53.204;6.590;2022-08-19T13:07:16;101276.03;;;23.40;61.04
67038;BME280;53940;53.204;6.590;2022-08-19T13:10:18;101282.41;;;23.39;61.14
67038;BME280;53940;53.204;6.590;2022-08-19T13:13:20;101280.72;;;23.38;61.04
67038;BME280;53940;53.204;6.590;2022-08-19T13:16:21;101280.88;;;23.36;60.98
67038;BME280;53940;53.204;6.590;2022-08-19T13:19:22;101290.75;;;23.36;61.12
67038;BME280;53940;53.204;6.590;2022-08-19T13:22:23;101279.31;;;23.34;61.06
67038;BME280;53940;53.204;6.590;2022-08-19T13:25:25;101285.69;;;23.33;61.05
67038;BME280;53940;53.204;6.590;2022-08-19T13:28:25;101303.66;;;23.32;61.02
67038;BME280;53940;53.204;6.590;2022-08-19T13:31:28;101295.72;;;23.31;61.03
67038;BME280;53940;53.204;6.590;2022-08-19T13:34:47;101298.41;;;23.31;61.07
67038;BME280;53940;53.204;6.590;2022-08-19T13:37:47;101296.00;;;23.27;61.13
67038;BME280;53940;53.204;6.590;2022-08-19T13:40:49;101289.06;;;23.25;60.96
67038;BME280;53940;53.204;6.590;2022-08-19T13:43:51;101298.00;;;23.25;60.94
67038;BME280;53940;53.204;6.590;2022-08-19T13:46:51;101289.22;;;23.23;61.11
67038;BME280;53940;53.204;6.590;2022-08-19T13:49:53;101291.22;;;23.21;61.23
67038;BME280;53940;53.204;6.590;2022-08-19T13:52:54;101289.50;;;23.20;61.17
67038;BME280;53940;53.204;6.590;2022-08-19T13:55:54;101293.19;;;23.19;61.19
67038;BME280;53940;53.204;6.590;2022-08-19T13:58:55;101288.97;;;23.17;61.28
67038;BME280;53940;53.204;6.590;2022-08-19T14:01:59;101292.63;;;23.15;61.33
67038;BME280;53940;53.204;6.590;2022-08-19T14:05:00;101290.09;;;23.14;61.31
67038;BME280;53940;53.204;6.590;2022-08-19T14:08:00;101291.22;;;23.11;61.10
67038;BME280;53940;53.204;6.590;2022-08-19T14:11:00;101295.75;;;23.11;61.25
67038;BME280;53940;53.204;6.590;2022-08-19T14:14:01;101288.69;;;23.10;61.39
67038;BME280;53940;53.204;6.590;2022-08-19T14:17:01;101290.69;;;23.08;61.23
67038;BME280;53940;53.204;6.590;2022-08-19T14:20:04;101286.31;;;23.07;61.53
67038;BME280;53940;53.204;6.590;2022-08-19T14:23:08;101285.56;;;23.05;61.37
67038;BME280;53940;53.204;6.590;2022-08-19T14:26:14;101288.41;;;23.03;61.47
67038;BME280;53940;53.204;6.590;2022-08-19T14:29:15;101292.94;;;23.02;61.56
67038;BME280;53940;53.204;6.590;2022-08-19T14:32:16;101283.19;;;23.01;61.62
67038;BME280;53940;53.204;6.590;2022-08-19T14:35:16;101278.81;;;23.00;61.56
67038;BME280;53940;53.204;6.590;2022-08-19T14:38:18;101275.41;;;22.98;61.71
67038;BME280;53940;53.204;6.590;2022-08-19T14:41:21;101272.84;;;22.97;61.68
67038;BME280;53940;53.204;6.590;2022-08-19T14:44:22;101274.72;;;22.96;61.72
67038;BME280;53940;53.204;6.590;2022-08-19T14:47:22;101275.72;;;22.95;61.83
67038;BME280;53940;53.204;6.590;2022-08-19T14:50:23;101268.91;;;22.91;61.68
67038;BME280;53940;53.204;6.590;2022-08-19T14:53:23;101271.75;;;22.89;61.56
67038;BME280;53940;53.204;6.590;2022-08-19T14:56:27;101269.22;;;22.88;61.67
67038;BME280;53940;53.204;6.590;2022-08-19T14:59:28;101264.13;;;22.85;61.76
67038;BME280;53940;53.204;6.590;2022-08-19T15:02:28;101263.41;;;22.83;61.92
67038;BME280;53940;53.204;6.590;2022-08-19T15:05:28;101262.69;;;22.81;61.78
67038;BME280;53940;53.204;6.590;2022-08-19T15:08:30;101269.06;;;22.80;61.75
67038;BME280;53940;53.204;6.590;2022-08-19T15:11:31;101263.00;;;22.78;61.70
67038;BME280;53940;53.204;6.590;2022-08-19T15:14:35;101263.28;;;22.74;61.76
67038;BME280;53940;53.204;6.590;2022-08-19T15:17:37;101261.56;;;22.73;61.73
67038;BME280;53940;53.204;6.590;2022-08-19T15:20:38;101272.63;;;22.70;61.65
67038;BME280;53940;53.204;6.590;2022-08-19T15:23:40;101269.22;;;22.68;61.75
67038;BME280;53940;53.204;6.590;2022-08-19T15:26:40;101272.91;;;22.67;61.71
67038;BME280;53940;53.204;6.590;2022-08-19T15:29:42;101269.50;;;22.65;61.85
67038;BME280;53940;53.204;6.590;2022-08-19T15:32:43;101273.19;;;22.64;61.64
67038;BME280;53940;53.204;6.590;2022-08-19T15:35:44;101269.78;;;22.62;61.80
67038;BME280;53940;53.204;6.590;2022-08-19T15:38:44;101273.47;;;22.61;61.92
67038;BME280;53940;53.204;6.590;2022-08-19T15:41:45;101286.19;;;22.59;61.82
67038;BME280;53940;53.204;6.590;2022-08-19T15:44:46;101280.97;;;22.57;61.97
67038;BME280;53940;53.204;6.590;2022-08-19T15:47:47;101280.28;;;22.55;61.93
67038;BME280;53940;53.204;6.590;2022-08-19T15:50:47;101283.09;;;22.54;62.07
67038;BME280;53940;53.204;6.590;2022-08-19T15:53:48;101282.38;;;22.52;61.92
67038;BME280;53940;53.204;6.590;2022-08-19T15:56:49;101281.63;;;22.49;62.05
67038;BME280;53940;53.204;6.590;2022-08-19T16:00:09;101279.94;;;22.48;62.00
67038;BME280;53940;53.204;6.590;2022-08-19T16:03:28;101291.69;;;22.47;62.05